createdAt,value
2023-03-08T00:00:15.485Z,73.04
2023-03-08T00:01:18.797Z,72.76
2023-03-08T00:02:21.581Z,72.79
2023-03-08T00:03:23.830Z,72.59
2023-03-08T00:04:26.763Z,72.56
2023-03-08T00:05:28.813Z,72.67
2023-03-08T00:06:31.884Z,72.34
2023-03-08T00:07:34.140Z,72.85
2023-03-08T00:08:37.122Z,73.27
2023-03-08T00:09:39.064Z,73.29
2023-03-08T00:10:43.143Z,73.19
2023-03-08T00:11:44.957Z,72.78
2023-03-08T00:12:47.802Z,72.90
2023-03-08T00:13:49.617Z,72.79
2023-03-08T00:14:52.410Z,72.71
2023-03-08T00:15:54.345Z,73.35
2023-03-08T00:16:57.104Z,73.16
2023-03-08T00:17:58.873Z,72.83
2023-03-08T00:19:01.771Z,73.11
2023-03-08T00:20:05.935Z,73.05
2023-03-08T00:21:10.402Z,73.41
2023-03-08T00:22:12.225Z,72.89
2023-03-08T00:23:14.968Z,72.87
2023-03-08T00:24:17.703Z,72.87
2023-03-08T00:25:20.596Z,73.13
2023-03-08T00:26:23.717Z,73.06
2023-03-08T00:27:26.411Z,73.09
2023-03-08T00:28:28.914Z,73.09
2023-03-08T00:29:31.945Z,73.55
2023-03-08T00:30:33.744Z,73.01
2023-03-08T00:31:36.632Z,73.10
2023-03-08T00:32:38.448Z,73.42
2023-03-08T00:33:41.426Z,72.97
2023-03-08T00:34:46.897Z,73.04
2023-03-08T00:35:56.295Z,72.73
2023-03-08T00:36:58.029Z,73.00
2023-03-08T00:38:00.899Z,73.13
2023-03-08T00:39:02.674Z,73.41
2023-03-08T00:40:08.435Z,72.97
2023-03-08T00:41:10.926Z,73.35
2023-03-08T00:42:14.984Z,73.13
2023-03-08T00:43:16.719Z,73.36
2023-03-08T00:44:19.585Z,73.13
2023-03-08T00:45:21.627Z,73.24
2023-03-08T00:46:25.614Z,72.98
2023-03-08T00:47:27.436Z,73.43
2023-03-08T00:48:30.187Z,73.63
2023-03-08T00:49:31.973Z,73.61
2023-03-08T00:50:34.839Z,73.66
2023-03-08T00:51:37.581Z,73.24
2023-03-08T00:52:39.623Z,73.41
2023-03-08T00:53:42.496Z,73.28
2023-03-08T00:54:44.250Z,73.54
2023-03-08T00:55:50.645Z,74.05
2023-03-08T00:56:53.414Z,73.58
2023-03-08T00:57:56.549Z,73.20
2023-03-08T00:58:59.349Z,73.64
2023-03-08T01:00:02.152Z,73.55
2023-03-08T01:01:05.693Z,73.53
2023-03-08T01:02:08.482Z,73.41
2023-03-08T01:03:10.341Z,73.99
2023-03-08T01:04:13.564Z,73.82
2023-03-08T01:05:15.508Z,73.97
2023-03-08T01:06:20.080Z,73.93
2023-03-08T01:07:23.517Z,73.96
2023-03-08T01:08:27.479Z,73.78
2023-03-08T01:09:29.283Z,73.95
2023-03-08T01:10:32.058Z,73.81
2023-03-08T01:11:36.657Z,73.64
2023-03-08T01:12:40.334Z,74.22
2023-03-08T01:13:43.436Z,74.20
2023-03-08T01:14:46.175Z,74.05
2023-03-08T01:15:48.709Z,74.35
2023-03-08T01:16:51.451Z,74.34
2023-03-08T01:17:53.325Z,74.30
2023-03-08T01:18:56.917Z,74.05
2023-03-08T01:19:58.739Z,74.06
2023-03-08T01:21:03.559Z,74.18
2023-03-08T01:22:05.653Z,74.39
2023-03-08T01:23:09.118Z,74.01
2023-03-08T01:24:10.980Z,74.51
2023-03-08T01:25:13.804Z,74.39
2023-03-08T01:26:16.941Z,74.34
2023-03-08T01:27:19.757Z,74.29
2023-03-08T01:28:21.641Z,74.31
2023-03-08T01:29:25.696Z,74.03
2023-03-08T01:30:27.956Z,74.24
2023-03-08T01:31:31.573Z,74.09
2023-03-08T01:32:35.381Z,74.41
2023-03-08T01:33:38.138Z,74.50
2023-03-08T01:34:40.044Z,74.51
2023-03-08T01:35:42.898Z,74.10
2023-03-08T01:36:45.658Z,74.36
2023-03-08T01:37:53.629Z,74.08
2023-03-08T01:38:57.339Z,74.44
2023-03-08T01:39:59.124Z,74.54
2023-03-08T01:41:03.514Z,74.54
2023-03-08T01:42:07.695Z,74.70
2023-03-08T01:43:23.800Z,74.87
2023-03-08T01:44:27.385Z,74.37
2023-03-08T01:46:07.472Z,74.57
2023-03-08T01:47:13.600Z,74.78
2023-03-08T01:48:31.520Z,74.51
2023-03-08T01:49:37.954Z,74.55
2023-03-08T01:50:41.649Z,74.68
2023-03-08T01:51:46.447Z,74.84
2023-03-08T01:52:49.744Z,74.58
2023-03-08T01:53:53.248Z,74.22
2023-03-08T01:54:57.045Z,74.40
2023-03-08T01:55:59.999Z,75.15
2023-03-08T01:57:05.821Z,75.00
2023-03-08T01:58:07.630Z,74.60
2023-03-08T01:59:11.089Z,74.76
2023-03-08T02:00:17.290Z,74.63
2023-03-08T02:01:21.861Z,74.60
2023-03-08T02:02:28.597Z,74.24
2023-03-08T02:03:32.291Z,74.12
2023-03-08T02:04:35.679Z,74.52
2023-03-08T02:05:40.021Z,74.41
2023-03-08T02:06:50.526Z,74.37
2023-03-08T02:07:57.119Z,74.44
2023-03-08T02:09:05.497Z,74.68
2023-03-08T02:10:08.922Z,74.40
2023-03-08T02:11:12.795Z,74.39
2023-03-08T02:12:14.699Z,74.66
2023-03-08T02:13:17.917Z,74.20
2023-03-08T02:14:19.981Z,74.21
2023-03-08T02:15:27.214Z,74.79
2023-03-08T02:16:32.025Z,74.85
2023-03-08T02:17:36.079Z,74.32
2023-03-08T02:18:39.050Z,74.51
2023-03-08T02:19:44.341Z,74.54
2023-03-08T02:20:47.262Z,74.35
2023-03-08T02:21:49.026Z,74.20
2023-03-08T02:22:53.795Z,74.39
2023-03-08T02:23:56.293Z,74.22
2023-03-08T02:24:59.056Z,74.13
2023-03-08T02:26:03.247Z,74.06
2023-03-08T02:27:08.767Z,73.92
2023-03-08T02:28:10.627Z,73.74
2023-03-08T02:29:13.996Z,73.75
2023-03-08T02:30:17.727Z,73.88
2023-03-08T02:31:20.519Z,74.04
2023-03-08T02:32:23.163Z,74.07
2023-03-08T02:33:26.204Z,73.86
2023-03-08T02:34:28.023Z,73.93
2023-03-08T02:35:30.995Z,73.94
2023-03-08T02:36:32.806Z,73.97
2023-03-08T02:37:35.740Z,73.84
2023-03-08T02:38:39.463Z,73.83
2023-03-08T02:39:42.205Z,73.77
2023-03-08T02:40:44.596Z,73.79
2023-03-08T02:41:47.777Z,73.65
2023-03-08T02:42:51.631Z,73.61
2023-03-08T02:43:55.657Z,73.73
2023-03-08T02:44:57.513Z,73.60
2023-03-08T02:46:00.319Z,73.63
2023-03-08T02:47:02.285Z,73.60
2023-03-08T02:48:06.463Z,73.99
2023-03-08T02:49:08.263Z,73.86
2023-03-08T02:50:11.987Z,73.76
2023-03-08T02:51:14.220Z,73.76
2023-03-08T02:52:17.298Z,73.49
2023-03-08T02:53:19.126Z,73.93
2023-03-08T02:54:23.258Z,74.10
2023-03-08T02:55:25.078Z,73.93
2023-03-08T02:56:27.896Z,73.91
2023-03-08T02:57:29.746Z,73.88
2023-03-08T02:58:32.812Z,74.22
2023-03-08T02:59:34.609Z,74.29
2023-03-08T03:00:38.107Z,74.13
2023-03-08T03:01:40.082Z,74.08
2023-03-08T03:02:42.976Z,74.02
2023-03-08T03:03:45.149Z,74.29
2023-03-08T03:04:48.288Z,74.49
2023-03-08T03:05:50.062Z,74.28
2023-03-08T03:06:58.079Z,74.34
2023-03-08T03:08:00.194Z,74.18
2023-03-08T03:09:07.212Z,74.30
2023-03-08T03:10:12.832Z,74.51
2023-03-08T03:11:18.494Z,74.53
2023-03-08T03:12:22.737Z,74.32
2023-03-08T03:13:25.569Z,74.68
2023-03-08T03:14:27.767Z,74.38
2023-03-08T03:15:31.224Z,74.33
2023-03-08T03:16:34.369Z,74.50
2023-03-08T03:17:37.512Z,74.96
2023-03-08T03:18:39.633Z,75.10
2023-03-08T03:19:42.386Z,75.17
2023-03-08T03:20:44.146Z,74.94
2023-03-08T03:21:47.152Z,74.87
2023-03-08T03:22:49.066Z,74.63
2023-03-08T03:23:55.300Z,74.67
2023-03-08T03:25:03.197Z,74.61
2023-03-08T03:26:08.531Z,74.58
2023-03-08T03:27:10.669Z,74.59
2023-03-08T03:28:15.166Z,74.52
2023-03-08T03:29:17.754Z,74.40
2023-03-08T03:30:23.420Z,74.37
2023-03-08T03:31:26.702Z,74.25
2023-03-08T03:32:30.270Z,74.33
2023-03-08T03:33:32.203Z,74.23
2023-03-08T03:34:35.425Z,74.21
2023-03-08T03:35:38.037Z,74.38
2023-03-08T03:36:41.101Z,74.13
2023-03-08T03:37:42.894Z,74.12
2023-03-08T03:38:46.006Z,74.26
2023-03-08T03:39:47.982Z,74.10
2023-03-08T03:41:01.452Z,74.15
2023-03-08T03:42:05.299Z,73.92
2023-03-08T03:43:08.227Z,73.89
2023-03-08T03:44:10.034Z,73.64
2023-03-08T03:45:12.945Z,73.81
2023-03-08T03:46:16.951Z,73.64
2023-03-08T03:47:21.923Z,73.73
2023-03-08T03:48:29.265Z,73.72
2023-03-08T03:49:32.293Z,73.54
2023-03-08T03:50:34.469Z,73.42
2023-03-08T03:51:43.084Z,73.27
2023-03-08T03:52:50.386Z,73.27
2023-03-08T03:53:53.280Z,73.35
2023-03-08T03:54:56.239Z,73.31
2023-03-08T03:56:05.539Z,73.65
2023-03-08T03:57:09.048Z,73.23
2023-03-08T03:58:15.398Z,73.25
2023-03-08T03:59:17.669Z,73.32
2023-03-08T04:00:22.163Z,73.44
2023-03-08T04:01:39.273Z,72.95
2023-03-08T04:02:51.105Z,73.21
2023-03-08T04:03:55.580Z,73.21
2023-03-08T04:04:58.872Z,73.13
2023-03-08T04:06:08.780Z,73.04
2023-03-08T04:07:14.048Z,72.99
2023-03-08T04:08:23.872Z,73.04
2023-03-08T04:09:26.628Z,73.03
2023-03-08T04:10:39.458Z,73.18
2023-03-08T04:11:44.664Z,72.88
2023-03-08T04:12:53.029Z,73.09
2023-03-08T04:13:58.249Z,73.08
2023-03-08T04:15:02.286Z,73.04
2023-03-08T04:16:11.900Z,73.11
2023-03-08T04:17:14.667Z,73.11
2023-03-08T04:18:22.553Z,73.13
2023-03-08T04:19:24.397Z,73.23
2023-03-08T04:20:30.149Z,73.19
2023-03-08T04:21:34.753Z,73.45
2023-03-08T04:22:37.750Z,73.21
2023-03-08T04:23:56.140Z,73.16
2023-03-08T04:24:58.810Z,73.15
2023-03-08T04:26:09.700Z,73.15
2023-03-08T04:27:12.541Z,73.07
2023-03-08T04:28:16.814Z,73.16
2023-03-08T04:29:19.176Z,72.91
2023-03-08T04:30:22.538Z,72.78
2023-03-08T04:31:27.668Z,73.03
2023-03-08T04:32:32.180Z,73.20
2023-03-08T04:33:34.057Z,73.02
2023-03-08T04:34:37.185Z,73.00
2023-03-08T04:35:41.005Z,73.04
2023-03-08T04:36:43.944Z,73.01
2023-03-08T04:37:47.675Z,73.15
2023-03-08T04:38:52.484Z,72.98
2023-03-08T04:39:54.335Z,73.09
2023-03-08T04:41:05.547Z,73.10
2023-03-08T04:42:16.569Z,73.20
2023-03-08T04:43:21.858Z,73.24
2023-03-08T04:44:25.023Z,73.10
2023-03-08T04:45:28.022Z,73.33
2023-03-08T04:46:34.094Z,72.94
2023-03-08T04:47:37.130Z,73.28
2023-03-08T04:48:40.326Z,73.21
2023-03-08T04:49:44.026Z,73.09
2023-03-08T04:50:53.795Z,72.85
2023-03-08T04:51:56.010Z,72.73
2023-03-08T04:52:59.415Z,72.68
2023-03-08T04:54:01.762Z,72.78
2023-03-08T04:55:05.092Z,72.70
2023-03-08T04:56:07.902Z,72.58
2023-03-08T04:57:10.963Z,72.57
2023-03-08T04:58:13.904Z,72.44
2023-03-08T04:59:18.866Z,72.65
2023-03-08T05:00:21.054Z,72.34
2023-03-08T05:01:24.305Z,72.35
2023-03-08T05:02:27.469Z,72.38
2023-03-08T05:03:30.528Z,72.30
2023-03-08T05:04:32.348Z,72.29
2023-03-08T05:05:35.369Z,72.30
2023-03-08T05:06:37.676Z,72.05
2023-03-08T05:07:40.506Z,72.14
2023-03-08T05:08:43.346Z,72.09
2023-03-08T05:09:46.801Z,72.04
2023-03-08T05:10:49.594Z,72.27
2023-03-08T05:11:53.155Z,72.26
2023-03-08T05:12:56.544Z,72.27
2023-03-08T05:14:00.212Z,72.35
2023-03-08T05:15:05.452Z,72.48
2023-03-08T05:16:09.309Z,72.39
2023-03-08T05:17:11.246Z,72.32
2023-03-08T05:18:14.753Z,72.20
2023-03-08T05:19:17.568Z,72.55
2023-03-08T05:20:24.149Z,72.41
2023-03-08T05:21:27.139Z,72.46
2023-03-08T05:22:38.883Z,72.55
2023-03-08T05:23:48.616Z,72.29
2023-03-08T05:24:52.689Z,72.71
2023-03-08T05:25:59.154Z,72.56
2023-03-08T05:27:00.932Z,72.54
2023-03-08T05:28:03.866Z,72.70
2023-03-08T05:29:07.641Z,72.51
2023-03-08T05:30:13.348Z,72.57
2023-03-08T05:31:18.634Z,72.68
2023-03-08T05:32:20.998Z,72.62
2023-03-08T05:33:24.317Z,72.60
2023-03-08T05:34:26.269Z,72.59
2023-03-08T05:35:29.029Z,72.23
2023-03-08T05:36:31.390Z,72.49
2023-03-08T05:37:34.582Z,72.48
2023-03-08T05:38:39.065Z,72.54
2023-03-08T05:39:44.645Z,72.27
2023-03-08T05:41:01.071Z,72.21
2023-03-08T05:42:02.962Z,72.34
2023-03-08T05:43:13.082Z,72.20
2023-03-08T05:44:15.292Z,72.06
2023-03-08T05:45:19.988Z,71.96
2023-03-08T05:46:21.946Z,71.66
2023-03-08T05:47:25.240Z,71.75
2023-03-08T05:48:27.573Z,71.35
2023-03-08T05:49:31.086Z,71.52
2023-03-08T05:50:33.380Z,71.59
2023-03-08T05:51:36.216Z,71.41
2023-03-08T05:52:38.939Z,71.69
2023-03-08T05:53:41.793Z,71.66
2023-03-08T05:54:44.650Z,71.37
2023-03-08T05:55:52.097Z,71.32
2023-03-08T05:56:53.911Z,71.52
2023-03-08T05:58:01.225Z,71.46
2023-03-08T05:59:04.046Z,71.41
2023-03-08T06:00:08.614Z,71.54
2023-03-08T06:01:20.933Z,71.59
2023-03-08T06:02:23.021Z,71.69
2023-03-08T06:03:29.422Z,71.82
2023-03-08T06:04:32.581Z,71.42
2023-03-08T06:05:35.657Z,71.72
2023-03-08T06:06:37.884Z,71.84
2023-03-08T06:07:43.635Z,71.76
2023-03-08T06:08:48.681Z,71.96
2023-03-08T06:09:52.038Z,71.77
2023-03-08T06:10:54.033Z,71.93
2023-03-08T06:11:57.826Z,71.99
2023-03-08T06:13:00.595Z,72.18
2023-03-08T06:14:02.453Z,71.58
2023-03-08T06:15:08.903Z,71.83
2023-03-08T06:16:13.472Z,71.77
2023-03-08T06:17:16.713Z,71.84
2023-03-08T06:18:22.656Z,71.37
2023-03-08T06:19:24.613Z,70.75
2023-03-08T06:20:29.693Z,71.19
2023-03-08T06:21:31.600Z,70.83
2023-03-08T06:22:39.619Z,71.00
2023-03-08T06:23:43.246Z,71.04
2023-03-08T06:24:49.454Z,70.65
2023-03-08T06:25:56.058Z,70.76
2023-03-08T06:26:58.163Z,70.92
2023-03-08T06:28:01.211Z,70.33
2023-03-08T06:29:11.583Z,70.50
2023-03-08T06:30:14.775Z,70.65
2023-03-08T06:31:18.135Z,70.40
2023-03-08T06:32:23.069Z,70.17
2023-03-08T06:33:28.045Z,69.89
2023-03-08T06:34:31.330Z,70.37
2023-03-08T06:35:34.041Z,70.21
2023-03-08T06:36:39.583Z,70.26
2023-03-08T06:37:43.070Z,70.24
2023-03-08T06:38:47.914Z,69.78
2023-03-08T06:39:51.253Z,69.87
2023-03-08T06:40:54.926Z,69.90
2023-03-08T06:41:58.917Z,69.86
2023-03-08T06:43:02.549Z,70.17
2023-03-08T06:44:04.561Z,69.85
2023-03-08T06:45:08.487Z,69.95
2023-03-08T06:46:12.468Z,69.78
2023-03-08T06:47:15.282Z,69.84
2023-03-08T06:48:18.824Z,70.35
2023-03-08T06:49:22.217Z,69.38
2023-03-08T06:50:24.327Z,68.72
2023-03-08T06:51:27.521Z,69.08
2023-03-08T06:52:34.916Z,69.76
2023-03-08T06:53:39.199Z,69.20
2023-03-08T06:54:41.987Z,68.77
2023-03-08T06:55:44.869Z,68.83
2023-03-08T06:56:47.237Z,68.62
2023-03-08T06:57:49.982Z,68.88
2023-03-08T06:58:52.958Z,68.32
2023-03-08T06:59:54.711Z,68.87
2023-03-08T07:00:59.620Z,68.55
2023-03-08T07:02:02.510Z,68.61
2023-03-08T07:03:04.291Z,68.37
2023-03-08T07:04:08.909Z,68.13
2023-03-08T07:05:10.888Z,67.96
2023-03-08T07:06:13.665Z,67.40
2023-03-08T07:07:16.538Z,67.03
2023-03-08T07:08:18.514Z,67.42
2023-03-08T07:09:21.298Z,67.89
2023-03-08T07:10:24.407Z,66.84
2023-03-08T07:11:27.761Z,67.56
2023-03-08T07:12:32.192Z,67.37
2023-03-08T07:13:34.053Z,67.62
2023-03-08T07:14:36.916Z,67.58
2023-03-08T07:15:40.676Z,66.11
2023-03-08T07:16:43.416Z,66.29
2023-03-08T07:17:45.683Z,66.04
2023-03-08T07:18:48.379Z,66.39
2023-03-08T07:19:51.508Z,66.71
2023-03-08T07:20:54.603Z,66.46
2023-03-08T07:21:56.380Z,67.04
2023-03-08T07:23:01.671Z,67.44
2023-03-08T07:24:04.994Z,66.79
2023-03-08T07:25:07.876Z,65.36
2023-03-08T07:26:12.724Z,64.51
2023-03-08T07:27:14.734Z,63.60
2023-03-08T07:28:17.476Z,64.68
2023-03-08T07:29:19.209Z,64.19
2023-03-08T07:30:22.408Z,63.59
2023-03-08T07:31:26.547Z,63.54
2023-03-08T07:32:29.078Z,63.73
2023-03-08T07:33:32.220Z,63.81
2023-03-08T07:34:35.179Z,65.41
2023-03-08T07:35:40.018Z,64.50
2023-03-08T07:36:43.053Z,64.65
2023-03-08T07:37:45.429Z,64.71
2023-03-08T07:38:49.158Z,65.27
2023-03-08T07:39:51.778Z,65.29
2023-03-08T07:40:56.079Z,64.99
2023-03-08T07:41:57.866Z,65.43
2023-03-08T07:43:01.032Z,65.81
2023-03-08T07:44:14.207Z,64.33
2023-03-08T07:45:16.155Z,64.29
2023-03-08T07:46:19.003Z,65.06
2023-03-08T07:47:21.364Z,64.94
2023-03-08T07:48:24.095Z,64.99
2023-03-08T07:49:25.893Z,64.72
2023-03-08T07:50:28.845Z,64.42
2023-03-08T07:51:33.315Z,64.32
2023-03-08T07:52:35.182Z,64.16
2023-03-08T07:53:38.572Z,64.73
2023-03-08T07:54:40.493Z,65.07
2023-03-08T07:55:43.600Z,63.87
2023-03-08T07:56:45.845Z,64.71
2023-03-08T07:57:48.582Z,65.07
2023-03-08T07:58:51.413Z,65.04
2023-03-08T07:59:54.502Z,64.88
2023-03-08T08:00:57.409Z,65.22
2023-03-08T08:01:59.273Z,65.73
2023-03-08T08:03:02.066Z,65.03
2023-03-08T08:04:04.547Z,64.86
2023-03-08T08:05:07.808Z,64.42
2023-03-08T08:06:09.633Z,64.79
2023-03-08T08:07:15.141Z,64.56
2023-03-08T08:08:18.370Z,64.72
2023-03-08T08:09:20.196Z,64.43
2023-03-08T08:10:22.982Z,64.51
2023-03-08T08:11:25.799Z,64.14
2023-03-08T08:12:28.639Z,64.67
2023-03-08T08:13:30.454Z,64.31
2023-03-08T08:14:33.633Z,64.48
2023-03-08T08:15:35.616Z,64.33
2023-03-08T08:16:38.515Z,65.06
2023-03-08T08:17:41.402Z,64.94
2023-03-08T08:18:43.176Z,64.90
2023-03-08T08:19:46.358Z,65.14
2023-03-08T08:20:49.458Z,65.32
2023-03-08T08:21:51.266Z,65.72
2023-03-08T08:22:55.558Z,65.49
2023-03-08T08:23:58.022Z,66.05
2023-03-08T08:25:00.774Z,66.58
2023-03-08T08:26:06.243Z,66.29
2023-03-08T08:27:08.220Z,66.22
2023-03-08T08:28:11.347Z,65.88
2023-03-08T08:29:13.332Z,66.11
2023-03-08T08:30:16.701Z,65.90
2023-03-08T08:31:20.287Z,66.66
2023-03-08T08:32:23.102Z,66.32
2023-03-08T08:33:25.108Z,66.39
2023-03-08T08:34:27.823Z,66.70
2023-03-08T08:35:42.448Z,66.52
2023-03-08T08:37:05.127Z,66.70
2023-03-08T08:38:09.208Z,67.09
2023-03-08T08:39:11.168Z,66.91
2023-03-08T08:40:14.289Z,67.32
2023-03-08T08:41:18.667Z,66.77
2023-03-08T08:42:21.402Z,66.62
2023-03-08T08:43:23.239Z,66.87
2023-03-08T08:44:26.075Z,67.15
2023-03-08T08:45:27.894Z,66.14
2023-03-08T08:46:34.059Z,66.50
2023-03-08T08:47:36.802Z,66.17
2023-03-08T08:48:39.811Z,66.42
2023-03-08T08:49:41.925Z,66.56
2023-03-08T08:50:44.656Z,66.02
2023-03-08T08:51:47.435Z,66.33
2023-03-08T08:52:49.274Z,65.89
2023-03-08T08:53:53.652Z,65.79
2023-03-08T08:54:56.742Z,65.12
2023-03-08T08:55:59.524Z,65.34
2023-03-08T08:57:01.317Z,65.76
2023-03-08T08:58:05.186Z,65.87
2023-03-08T08:59:08.066Z,65.21
2023-03-08T09:00:11.293Z,65.36
2023-03-08T09:01:15.528Z,65.60
2023-03-08T09:02:18.619Z,65.63
2023-03-08T09:03:20.495Z,65.45
2023-03-08T09:04:23.441Z,66.16
2023-03-08T09:05:25.715Z,66.38
2023-03-08T09:06:29.678Z,66.04
2023-03-08T09:07:32.431Z,66.38
2023-03-08T09:08:34.685Z,65.71
2023-03-08T09:09:38.752Z,66.33
2023-03-08T09:10:41.228Z,66.05
2023-03-08T09:11:54.084Z,65.79
2023-03-08T09:12:59.856Z,65.79
2023-03-08T09:14:02.479Z,66.05
2023-03-08T09:15:06.140Z,66.24
2023-03-08T09:16:18.113Z,66.57
2023-03-08T09:17:20.905Z,65.38
2023-03-08T09:18:22.787Z,65.63
2023-03-08T09:19:25.591Z,66.53
2023-03-08T09:20:27.410Z,65.98
2023-03-08T09:21:31.174Z,66.14
2023-03-08T09:22:33.954Z,66.37
2023-03-08T09:23:35.709Z,66.19
2023-03-08T09:24:39.976Z,66.83
2023-03-08T09:25:41.882Z,66.60
2023-03-08T09:26:44.673Z,66.43
2023-03-08T09:27:50.066Z,67.01
2023-03-08T09:28:51.842Z,66.40
2023-03-08T09:29:54.603Z,66.34
2023-03-08T09:30:56.463Z,67.04
2023-03-08T09:31:59.733Z,66.77
2023-03-08T09:33:02.064Z,66.37
2023-03-08T09:34:08.613Z,67.00
2023-03-08T09:35:10.700Z,66.19
2023-03-08T09:36:13.889Z,66.34
2023-03-08T09:37:16.214Z,65.70
2023-03-08T09:38:18.930Z,66.36
2023-03-08T09:39:21.832Z,66.34
2023-03-08T09:40:27.368Z,66.02
2023-03-08T09:41:39.479Z,66.55
2023-03-08T09:42:42.351Z,66.12
2023-03-08T09:43:47.900Z,66.08
2023-03-08T09:45:07.742Z,66.47
2023-03-08T09:46:13.300Z,65.65
2023-03-08T09:47:26.977Z,66.54
2023-03-08T09:48:32.046Z,66.17
2023-03-08T09:49:36.435Z,66.94
2023-03-08T09:50:44.610Z,66.66
2023-03-08T09:51:49.420Z,66.00
2023-03-08T09:52:57.149Z,65.68
2023-03-08T09:54:03.024Z,65.75
2023-03-08T09:55:06.106Z,65.42
2023-03-08T09:56:16.395Z,66.03
2023-03-08T09:57:21.388Z,65.51
2023-03-08T09:58:32.311Z,66.10
2023-03-08T09:59:40.965Z,65.43
2023-03-08T10:00:46.715Z,66.07
2023-03-08T10:01:55.957Z,65.69
2023-03-08T10:03:10.150Z,65.56
2023-03-08T10:04:25.204Z,65.60
2023-03-08T10:05:31.819Z,64.37
2023-03-08T10:06:38.877Z,65.11
2023-03-08T10:08:05.608Z,64.92
2023-03-08T10:09:16.420Z,64.55
2023-03-08T10:10:32.939Z,64.79
2023-03-08T10:11:51.261Z,64.03
2023-03-08T10:13:11.050Z,64.10
2023-03-08T10:14:20.059Z,64.63
2023-03-08T10:15:24.710Z,64.22
2023-03-08T10:16:29.107Z,64.72
2023-03-08T10:17:40.185Z,64.25
2023-03-08T10:18:47.079Z,64.40
2023-03-08T10:19:54.400Z,64.79
2023-03-08T10:20:57.831Z,64.80
2023-03-08T10:22:03.574Z,64.33
2023-03-08T10:23:14.130Z,64.08
2023-03-08T10:24:19.209Z,64.09
2023-03-08T10:25:24.496Z,64.46
2023-03-08T10:26:27.027Z,64.05
2023-03-08T10:27:34.262Z,63.77
2023-03-08T10:28:36.990Z,62.63
2023-03-08T10:29:39.187Z,62.88
2023-03-08T10:30:44.908Z,62.89
2023-03-08T10:31:47.981Z,62.92
2023-03-08T10:32:51.787Z,62.89
2023-03-08T10:34:03.666Z,62.78
2023-03-08T10:35:07.220Z,62.87
2023-03-08T10:36:17.403Z,62.52
2023-03-08T10:37:22.613Z,63.02
2023-03-08T10:38:27.391Z,62.96
2023-03-08T10:39:30.240Z,62.45
2023-03-08T10:40:32.152Z,62.55
2023-03-08T10:41:41.040Z,62.66
2023-03-08T10:42:49.496Z,62.48
2023-03-08T10:43:53.170Z,62.19
2023-03-08T10:44:59.069Z,62.53
2023-03-08T10:46:05.213Z,62.68
2023-03-08T10:47:21.484Z,61.88
2023-03-08T10:48:23.251Z,62.04
2023-03-08T10:49:27.958Z,62.60
2023-03-08T10:50:32.544Z,61.98
2023-03-08T10:51:34.441Z,61.52
2023-03-08T10:52:37.854Z,61.56
2023-03-08T10:53:39.641Z,60.73
2023-03-08T10:54:42.791Z,61.19
2023-03-08T10:55:45.809Z,60.37
2023-03-08T10:56:54.867Z,59.41
2023-03-08T10:58:00.750Z,59.42
2023-03-08T10:59:04.143Z,58.72
2023-03-08T11:00:21.182Z,59.35
2023-03-08T11:01:25.785Z,58.07
2023-03-08T11:02:28.870Z,58.42
2023-03-08T11:03:31.386Z,59.31
2023-03-08T11:04:34.128Z,57.83
2023-03-08T11:05:37.336Z,57.66
2023-03-08T11:06:40.135Z,57.97
2023-03-08T11:07:50.204Z,57.95
2023-03-08T11:08:54.460Z,57.42
2023-03-08T11:10:16.495Z,58.32
2023-03-08T11:11:19.297Z,58.43
2023-03-08T11:12:23.823Z,57.53
2023-03-08T11:13:31.312Z,57.58
2023-03-08T11:14:34.247Z,58.01
2023-03-08T11:15:37.403Z,57.85
2023-03-08T11:16:47.100Z,57.69
2023-03-08T11:17:54.694Z,58.50
2023-03-08T11:19:03.040Z,58.65
2023-03-08T11:20:14.294Z,58.69
2023-03-08T11:21:22.789Z,58.10
2023-03-08T11:22:33.920Z,58.57
2023-03-08T11:23:40.048Z,59.07
2023-03-08T11:24:57.391Z,58.04
2023-03-08T11:26:05.350Z,58.77
2023-03-08T11:27:19.874Z,58.38
2023-03-08T11:28:35.092Z,58.76
2023-03-08T11:29:45.642Z,59.04
2023-03-08T11:30:58.636Z,58.93
2023-03-08T11:32:08.601Z,59.40
2023-03-08T11:33:27.184Z,59.37
2023-03-08T11:34:58.172Z,59.24
2023-03-08T11:36:06.558Z,59.67
2023-03-08T11:37:14.445Z,59.23
2023-03-08T11:38:21.292Z,59.44
2023-03-08T11:39:25.946Z,59.20
2023-03-08T11:40:31.139Z,58.98
2023-03-08T11:41:40.271Z,59.36
2023-03-08T11:42:53.664Z,58.67
2023-03-08T11:44:21.275Z,58.98
2023-03-08T11:45:26.577Z,58.99
2023-03-08T11:46:34.229Z,59.33
2023-03-08T11:48:24.557Z,59.44
2023-03-08T11:49:34.739Z,59.14
2023-03-08T11:50:40.047Z,58.40
2023-03-08T11:51:44.618Z,58.71
2023-03-08T11:52:54.983Z,58.53
2023-03-08T11:54:10.133Z,58.30
2023-03-08T11:55:27.038Z,58.49
2023-03-08T11:56:43.932Z,58.41
2023-03-08T11:57:49.861Z,58.08
2023-03-08T11:58:55.849Z,57.96
2023-03-08T12:00:11.590Z,57.38
2023-03-08T12:01:16.463Z,57.49
2023-03-08T12:02:21.793Z,56.67
2023-03-08T12:03:27.884Z,57.06
2023-03-08T12:04:36.574Z,56.81
2023-03-08T12:05:42.188Z,56.81
2023-03-08T12:06:45.479Z,57.12
2023-03-08T12:07:52.691Z,56.75
2023-03-08T12:08:59.096Z,56.68
2023-03-08T12:10:04.158Z,56.58
2023-03-08T12:11:11.156Z,56.37
2023-03-08T12:12:18.543Z,56.76
2023-03-08T12:13:24.532Z,56.50
2023-03-08T12:14:30.327Z,56.10
2023-03-08T12:15:38.749Z,56.68
2023-03-08T12:16:46.096Z,56.40
2023-03-08T12:17:54.336Z,56.66
2023-03-08T12:18:59.220Z,56.15
2023-03-08T12:20:02.223Z,56.52
2023-03-08T12:21:15.739Z,57.06
2023-03-08T12:22:35.035Z,57.37
2023-03-08T12:23:41.182Z,56.86
2023-03-08T12:24:48.244Z,56.69
2023-03-08T12:25:54.033Z,56.15
2023-03-08T12:26:59.569Z,56.22
2023-03-08T12:28:05.412Z,55.18
2023-03-08T12:29:13.736Z,55.98
2023-03-08T12:30:25.897Z,54.62
2023-03-08T12:31:33.186Z,55.74
2023-03-08T12:32:36.878Z,54.87
2023-03-08T12:33:40.145Z,54.65
2023-03-08T12:34:45.576Z,54.78
2023-03-08T12:35:52.433Z,54.34
2023-03-08T12:36:55.461Z,54.14
2023-03-08T12:37:59.514Z,54.75
2023-03-08T12:39:08.350Z,54.71
2023-03-08T12:40:31.335Z,54.40
2023-03-08T12:41:34.172Z,54.02
2023-03-08T12:42:37.997Z,54.63
2023-03-08T12:43:40.847Z,53.90
2023-03-08T12:44:44.714Z,52.40
2023-03-08T12:45:48.954Z,51.55
2023-03-08T12:47:03.018Z,52.89
2023-03-08T12:48:22.862Z,50.82
2023-03-08T12:49:28.191Z,51.51
2023-03-08T12:50:31.850Z,52.70
2023-03-08T12:51:35.054Z,51.84
2023-03-08T12:52:37.010Z,51.49
2023-03-08T12:53:42.286Z,51.93
2023-03-08T12:54:46.128Z,52.32
2023-03-08T12:55:59.899Z,52.73
2023-03-08T12:57:04.092Z,52.56
2023-03-08T12:58:05.940Z,53.39
2023-03-08T12:59:26.696Z,52.47
2023-03-08T13:00:31.299Z,52.26
2023-03-08T13:01:36.725Z,53.24
2023-03-08T13:02:41.086Z,52.89
2023-03-08T13:03:44.001Z,53.34
2023-03-08T13:04:46.166Z,53.27
2023-03-08T13:05:50.272Z,52.57
2023-03-08T13:07:13.373Z,52.80
2023-03-08T13:08:23.308Z,52.81
2023-03-08T13:09:28.747Z,52.65
2023-03-08T13:10:33.631Z,52.21
2023-03-08T13:11:41.285Z,51.76
2023-03-08T13:13:01.005Z,51.88
2023-03-08T13:14:05.868Z,52.64
2023-03-08T13:15:24.565Z,52.88
2023-03-08T13:16:34.005Z,52.51
2023-03-08T13:17:39.469Z,52.33
2023-03-08T13:18:45.557Z,51.53
2023-03-08T13:19:49.651Z,51.22
2023-03-08T13:21:16.651Z,51.51
2023-03-08T13:22:22.778Z,50.81
2023-03-08T13:23:29.881Z,52.01
2023-03-08T13:24:41.614Z,51.74
2023-03-08T13:25:51.776Z,51.62
2023-03-08T13:27:06.617Z,51.48
2023-03-08T13:28:11.418Z,51.10
2023-03-08T13:29:16.257Z,51.67
2023-03-08T13:30:23.729Z,52.10
2023-03-08T13:31:29.868Z,52.03
2023-03-08T13:32:32.708Z,51.98
2023-03-08T13:33:39.063Z,52.40
2023-03-08T13:34:45.510Z,52.13
2023-03-08T13:35:58.904Z,51.81
2023-03-08T13:37:02.606Z,52.07
2023-03-08T13:38:05.456Z,51.95
2023-03-08T13:39:15.382Z,51.98
2023-03-08T13:40:19.361Z,51.89
2023-03-08T13:41:32.621Z,51.25
2023-03-08T13:42:35.456Z,52.15
2023-03-08T13:43:37.214Z,52.03
2023-03-08T13:44:40.236Z,51.30
2023-03-08T13:45:47.799Z,51.49
2023-03-08T13:46:52.155Z,49.32
2023-03-08T13:47:56.242Z,50.38
2023-03-08T13:48:58.667Z,50.10
2023-03-08T13:50:03.400Z,50.29
2023-03-08T13:51:06.549Z,50.62
2023-03-08T13:52:17.018Z,50.15
2023-03-08T13:53:21.938Z,50.17
2023-03-08T13:54:29.717Z,50.18
2023-03-08T13:55:35.359Z,50.47
2023-03-08T13:56:37.292Z,50.81
2023-03-08T13:57:42.153Z,50.53